createdAt,value
2023-04-25T00:00:56.412Z,97515.38
2023-04-25T00:03:01.482Z,97516.22
2023-04-25T00:05:06.928Z,97512.34
2023-04-25T00:07:12.809Z,97509.50
2023-04-25T00:09:20.393Z,97509.91
2023-04-25T00:11:25.314Z,97505.56
2023-04-25T00:13:30.748Z,97505.47
2023-04-25T00:15:37.239Z,97506.41
2023-04-25T00:17:46.921Z,97515.72
2023-04-25T00:19:51.925Z,97510.94
2023-04-25T00:21:58.604Z,97510.44
2023-04-25T00:24:03.992Z,97505.75
2023-04-25T00:26:09.035Z,97514.50
2023-04-25T00:28:14.246Z,97508.88
2023-04-25T00:30:19.263Z,97507.59
2023-04-25T00:32:26.168Z,97501.41
2023-04-25T00:34:34.107Z,97501.72
2023-04-25T00:36:39.309Z,97512.06
2023-04-25T00:38:44.550Z,97504.66
2023-04-25T00:40:49.677Z,97505.91
2023-04-25T00:42:56.309Z,97511.88
2023-04-25T00:45:02.467Z,97504.66
2023-04-25T00:47:08.410Z,97497.09
2023-04-25T00:49:16.605Z,97504.66
2023-04-25T00:51:26.267Z,97498.78
2023-04-25T00:53:33.349Z,97500.72
2023-04-25T00:55:38.539Z,97502.16
2023-04-25T00:57:44.873Z,97498.31
2023-04-25T00:59:50.199Z,97496.44
2023-04-25T01:01:54.980Z,97496.00
2023-04-25T01:04:02.085Z,97498.28
2023-04-25T01:06:07.618Z,97492.81
2023-04-25T01:08:15.324Z,97497.84
2023-04-25T01:10:20.214Z,97504.41
2023-04-25T01:12:25.402Z,97499.72
2023-04-25T01:14:31.296Z,97489.94
2023-04-25T01:16:37.367Z,97488.13
2023-04-25T01:18:45.739Z,97493.97
2023-04-25T01:20:51.161Z,97496.03
2023-04-25T01:22:59.470Z,97484.91
2023-04-25T01:25:04.796Z,97490.28
2023-04-25T01:27:10.588Z,97488.31
2023-04-25T01:29:15.914Z,97486.72
2023-04-25T01:31:20.793Z,97485.72
2023-04-25T01:33:25.953Z,97481.09
2023-04-25T01:35:31.239Z,97488.97
2023-04-25T01:37:36.018Z,97481.31
2023-04-25T01:39:43.809Z,97483.25
2023-04-25T01:41:49.589Z,97481.50
2023-04-25T01:43:54.497Z,97485.38
2023-04-25T01:46:00.570Z,97484.53
2023-04-25T01:48:05.607Z,97488.22
2023-04-25T01:50:12.363Z,97488.28
2023-04-25T01:52:17.752Z,97493.16
2023-04-25T01:54:22.937Z,97498.13
2023-04-25T01:56:34.441Z,97493.53
2023-04-25T01:58:40.592Z,97502.34
2023-04-25T02:01:04.093Z,97500.06
2023-04-25T02:03:16.820Z,97500.81
2023-04-25T02:05:23.058Z,97492.91
2023-04-25T02:07:27.736Z,97492.16
2023-04-25T02:09:32.653Z,97488.88
2023-04-25T02:11:44.934Z,97489.66
2023-04-25T02:14:06.141Z,97495.09
2023-04-25T02:16:18.196Z,97489.97
2023-04-25T02:18:23.467Z,97494.59
2023-04-25T02:20:28.946Z,97493.91
2023-04-25T02:22:35.240Z,97493.91
2023-04-25T02:24:40.311Z,97497.53
2023-04-25T02:26:47.958Z,97496.59
2023-04-25T02:28:53.129Z,97490.63
2023-04-25T02:30:57.995Z,97491.81
2023-04-25T02:33:03.443Z,97486.88
2023-04-25T02:35:09.514Z,97485.34
2023-04-25T02:37:14.369Z,97480.91
2023-04-25T02:39:19.325Z,97479.06
2023-04-25T02:41:24.500Z,97477.28
2023-04-25T02:43:32.064Z,97477.13
2023-04-25T02:45:37.017Z,97475.34
2023-04-25T02:47:41.985Z,97477.06
2023-04-25T02:49:47.215Z,97471.84
2023-04-25T02:51:52.220Z,97470.91
2023-04-25T02:53:57.218Z,97471.84
2023-04-25T02:56:02.168Z,97473.69
2023-04-25T02:58:07.439Z,97469.16
2023-04-25T03:00:25.972Z,97469.81
2023-04-25T03:02:31.002Z,97469.59
2023-04-25T03:04:36.125Z,97460.78
2023-04-25T03:06:41.102Z,97461.66
2023-04-25T03:08:46.128Z,97459.41
2023-04-25T03:10:53.264Z,97460.41
2023-04-25T03:12:58.196Z,97464.19
2023-04-25T03:15:03.772Z,97459.06
2023-04-25T03:17:11.420Z,97461.91
2023-04-25T03:19:17.095Z,97457.81
2023-04-25T03:21:22.119Z,97457.16
2023-04-25T03:23:27.253Z,97453.72
2023-04-25T03:25:31.908Z,97455.69
2023-04-25T03:27:37.068Z,97458.50
2023-04-25T03:29:42.019Z,97459.50
2023-04-25T03:31:48.034Z,97462.38
2023-04-25T03:33:55.638Z,97461.38
2023-04-25T03:36:02.219Z,97454.47
2023-04-25T03:38:08.188Z,97453.56
2023-04-25T03:40:17.672Z,97455.63
2023-04-25T03:42:45.097Z,97461.09
2023-04-25T03:44:50.520Z,97457.41
2023-04-25T03:46:55.504Z,97456.34
2023-04-25T03:49:05.056Z,97464.53
2023-04-25T03:51:32.719Z,97465.31
2023-04-25T03:53:37.590Z,97458.94
2023-04-25T03:56:00.949Z,97463.88
2023-04-25T03:58:06.644Z,97456.69
2023-04-25T04:00:12.638Z,97469.91
2023-04-25T04:02:20.207Z,97465.25
2023-04-25T04:04:28.366Z,97461.88
2023-04-25T04:06:34.521Z,97460.66
2023-04-25T04:08:46.479Z,97461.53
2023-04-25T04:10:51.378Z,97467.47
2023-04-25T04:12:56.353Z,97465.72
2023-04-25T04:15:01.294Z,97469.56
2023-04-25T04:17:07.210Z,97473.69
2023-04-25T04:19:12.514Z,97471.19
2023-04-25T04:21:24.977Z,97464.28
2023-04-25T04:23:30.971Z,97473.19
2023-04-25T04:25:36.795Z,97477.94
2023-04-25T04:27:53.009Z,97472.28
2023-04-25T04:30:08.344Z,97480.34
2023-04-25T04:32:18.796Z,97489.75
2023-04-25T04:34:25.552Z,97485.03
2023-04-25T04:36:33.707Z,97488.47
2023-04-25T04:38:41.428Z,97493.66
2023-04-25T04:40:49.021Z,97489.69
2023-04-25T04:43:18.284Z,97497.31
2023-04-25T04:46:01.582Z,97492.59
2023-04-25T04:48:22.521Z,97495.88
2023-04-25T04:50:33.658Z,97503.97
2023-04-25T04:53:03.949Z,97496.88
2023-04-25T04:55:20.286Z,97500.00
2023-04-25T04:57:51.393Z,97500.69
2023-04-25T05:00:13.151Z,97506.34
2023-04-25T05:02:46.426Z,97502.13
2023-04-25T05:05:12.387Z,97507.63
2023-04-25T05:07:32.193Z,97513.66
2023-04-25T05:09:42.303Z,97516.19
2023-04-25T05:12:19.400Z,97510.84
2023-04-25T05:14:30.553Z,97519.53
2023-04-25T05:17:01.342Z,97507.84
2023-04-25T05:19:16.896Z,97509.84
2023-04-25T05:21:28.593Z,97514.16
2023-04-25T05:23:45.117Z,97519.31
2023-04-25T05:26:15.086Z,97518.44
2023-04-25T05:28:32.833Z,97521.72
2023-04-25T05:30:54.835Z,97520.88
2023-04-25T05:33:06.345Z,97525.16
2023-04-25T05:35:12.328Z,97525.22
2023-04-25T05:37:24.909Z,97525.00
2023-04-25T05:39:49.992Z,97521.28
2023-04-25T05:42:15.863Z,97529.22
2023-04-25T05:44:47.137Z,97536.16
2023-04-25T05:47:15.231Z,97532.19
2023-04-25T05:49:38.782Z,97541.84
2023-04-25T05:51:58.573Z,97541.84
2023-04-25T05:54:26.287Z,97542.44
2023-04-25T05:56:33.213Z,97548.84
2023-04-25T05:58:44.432Z,97541.44
2023-04-25T06:00:51.317Z,97543.81
2023-04-25T06:02:56.182Z,97541.41
2023-04-25T06:05:05.217Z,97548.69
2023-04-25T06:07:10.258Z,97548.56
2023-04-25T06:09:15.411Z,97552.91
2023-04-25T06:11:21.162Z,97557.47
2023-04-25T06:13:26.035Z,97560.44
2023-04-25T06:15:34.115Z,97566.03
2023-04-25T06:17:39.989Z,97565.34
2023-04-25T06:19:54.422Z,97576.38
2023-04-25T06:21:59.389Z,97581.41
2023-04-25T06:24:06.876Z,97580.78
2023-04-25T06:26:13.670Z,97586.97
2023-04-25T06:28:23.225Z,97589.91
2023-04-25T06:30:28.799Z,97580.88
2023-04-25T06:32:42.016Z,97581.31
2023-04-25T06:34:47.599Z,97580.44
2023-04-25T06:36:52.879Z,97580.16
2023-04-25T06:38:59.337Z,97572.44
2023-04-25T06:41:05.053Z,97573.75
2023-04-25T06:43:13.639Z,97566.63
2023-04-25T06:45:37.073Z,97569.69
2023-04-25T06:47:44.817Z,97577.03
2023-04-25T06:49:49.871Z,97580.16
2023-04-25T06:51:55.081Z,97573.66
2023-04-25T06:54:00.196Z,97560.97
2023-04-25T06:56:11.797Z,97554.94
2023-04-25T06:58:39.402Z,97556.19
2023-04-25T07:00:54.129Z,97564.81
2023-04-25T07:03:04.996Z,97558.16
2023-04-25T07:05:10.766Z,97563.28
2023-04-25T07:07:15.541Z,97558.19
2023-04-25T07:09:29.976Z,97572.19
2023-04-25T07:11:34.890Z,97566.84
2023-04-25T07:13:39.820Z,97569.31
2023-04-25T07:15:45.343Z,97559.22
2023-04-25T07:17:51.349Z,97577.69
2023-04-25T07:19:58.953Z,97597.19
2023-04-25T07:22:05.299Z,97615.06
2023-04-25T07:24:11.815Z,97617.38
2023-04-25T07:26:21.096Z,97619.56
2023-04-25T07:28:53.325Z,97627.56
2023-04-25T07:30:59.325Z,97626.00
2023-04-25T07:33:04.727Z,97622.00
2023-04-25T07:35:13.133Z,97615.44
2023-04-25T07:37:20.026Z,97604.59
2023-04-25T07:39:38.504Z,97608.56
2023-04-25T07:41:46.507Z,97602.22
2023-04-25T07:43:57.285Z,97594.00
2023-04-25T07:46:02.307Z,97600.72
2023-04-25T07:48:09.738Z,97596.31
2023-04-25T07:50:19.364Z,97609.72
2023-04-25T07:52:25.886Z,97619.50
2023-04-25T07:54:39.216Z,97662.41
2023-04-25T07:56:53.412Z,97707.31
2023-04-25T07:59:00.296Z,97730.19
2023-04-25T08:01:05.416Z,97729.59
2023-04-25T08:03:14.151Z,97708.31
2023-04-25T08:05:23.642Z,97697.84
2023-04-25T08:07:37.140Z,97676.72
2023-04-25T08:09:46.338Z,97674.91
2023-04-25T08:12:00.314Z,97670.78
2023-04-25T08:14:09.485Z,97667.09
2023-04-25T08:16:16.008Z,97657.84
2023-04-25T08:18:20.816Z,97639.28
2023-04-25T08:20:29.755Z,97650.06
2023-04-25T08:22:36.761Z,97638.41
2023-04-25T08:25:00.176Z,97633.16
2023-04-25T08:27:06.025Z,97621.44
2023-04-25T08:29:10.933Z,97624.38
2023-04-25T08:31:18.587Z,97627.19
2023-04-25T08:33:41.216Z,97631.47
2023-04-25T08:35:58.743Z,97629.66
2023-04-25T08:38:05.836Z,97632.72
2023-04-25T08:40:16.036Z,97618.19
2023-04-25T08:42:36.861Z,97630.72
2023-04-25T08:44:43.527Z,97622.00
2023-04-25T08:46:51.237Z,97624.31
2023-04-25T08:49:10.239Z,97630.59
2023-04-25T08:51:26.074Z,97634.59
2023-04-25T08:53:33.951Z,97637.69
2023-04-25T08:55:44.920Z,97641.66
2023-04-25T08:57:50.151Z,97637.91
2023-04-25T08:59:56.753Z,97644.63
2023-04-25T09:02:02.630Z,97652.81
2023-04-25T09:04:09.660Z,97652.66
2023-04-25T09:06:18.024Z,97655.16
2023-04-25T09:08:23.082Z,97656.47
2023-04-25T09:10:28.146Z,97651.75
2023-04-25T09:12:36.199Z,97646.19
2023-04-25T09:14:43.976Z,97650.47
2023-04-25T09:17:05.968Z,97650.97
2023-04-25T09:19:38.770Z,97655.66
2023-04-25T09:21:58.291Z,97654.06
2023-04-25T09:24:03.733Z,97640.69
2023-04-25T09:26:11.334Z,97647.31
2023-04-25T09:28:16.198Z,97636.94
2023-04-25T09:30:21.362Z,97639.50
2023-04-25T09:32:39.566Z,97634.16
2023-04-25T09:34:49.580Z,97626.69
2023-04-25T09:37:00.664Z,97627.88
2023-04-25T09:39:34.026Z,97632.22
2023-04-25T09:41:48.737Z,97633.44
2023-04-25T09:43:54.379Z,97633.22
2023-04-25T09:46:02.015Z,97637.91
2023-04-25T09:48:09.905Z,97628.13
2023-04-25T09:50:25.829Z,97627.97
2023-04-25T09:52:42.210Z,97625.34
2023-04-25T09:55:00.897Z,97629.19
2023-04-25T09:57:15.689Z,97630.47
2023-04-25T09:59:23.738Z,97627.63
2023-04-25T10:01:30.243Z,97627.31
2023-04-25T10:03:45.432Z,97624.66
2023-04-25T10:06:12.277Z,97629.69
2023-04-25T10:08:20.671Z,97629.00
2023-04-25T10:10:30.768Z,97629.66
2023-04-25T10:12:37.685Z,97638.16
2023-04-25T10:14:43.647Z,97635.59
2023-04-25T10:16:49.576Z,97618.56
2023-04-25T10:18:55.422Z,97618.22
2023-04-25T10:21:02.168Z,97617.13
2023-04-25T10:23:16.121Z,97617.66
2023-04-25T10:25:24.172Z,97626.34
2023-04-25T10:27:31.361Z,97630.03
2023-04-25T10:29:36.528Z,97625.16
2023-04-25T10:31:48.993Z,97618.19
2023-04-25T10:33:54.158Z,97619.47
2023-04-25T10:36:02.211Z,97627.63
2023-04-25T10:38:09.056Z,97625.16
2023-04-25T10:40:15.041Z,97619.88
2023-04-25T10:42:25.277Z,97622.16
2023-04-25T10:44:32.395Z,97625.25
2023-04-25T10:46:37.670Z,97619.97
2023-04-25T10:48:49.825Z,97616.25
2023-04-25T10:51:11.114Z,97616.25
2023-04-25T10:53:18.984Z,97614.28
2023-04-25T10:55:24.239Z,97620.53
2023-04-25T10:57:36.601Z,97626.38
2023-04-25T10:59:44.683Z,97623.09
2023-04-25T11:01:51.909Z,97622.66
2023-04-25T11:04:02.414Z,97623.22
2023-04-25T11:06:10.255Z,97616.03
2023-04-25T11:08:17.486Z,97617.88
2023-04-25T11:10:22.997Z,97631.72
2023-04-25T11:12:28.876Z,97626.75
2023-04-25T11:14:36.380Z,97631.91
2023-04-25T11:16:41.994Z,97632.53
2023-04-25T11:18:47.104Z,97642.41
2023-04-25T11:20:52.396Z,97636.94
2023-04-25T11:22:57.622Z,97631.78
2023-04-25T11:25:08.065Z,97639.81
2023-04-25T11:27:13.117Z,97633.97
2023-04-25T11:29:17.948Z,97638.63
2023-04-25T11:31:28.764Z,97638.53
2023-04-25T11:33:33.687Z,97645.81
2023-04-25T11:35:38.687Z,97637.31
2023-04-25T11:37:44.530Z,97637.03
2023-04-25T11:39:50.213Z,97643.94
2023-04-25T11:41:55.640Z,97647.00
2023-04-25T11:44:01.293Z,97644.22
2023-04-25T11:46:11.030Z,97640.47
2023-04-25T11:48:19.173Z,97641.09
2023-04-25T11:50:24.384Z,97645.22
2023-04-25T11:52:38.836Z,97650.91
2023-04-25T11:54:43.768Z,97648.41
2023-04-25T11:56:49.678Z,97651.84
2023-04-25T11:59:01.989Z,97645.38
2023-04-25T12:01:07.619Z,97648.88
2023-04-25T12:03:13.776Z,97654.97
2023-04-25T12:05:31.957Z,97654.69
2023-04-25T12:07:38.866Z,97662.72
2023-04-25T12:09:43.844Z,97659.03
2023-04-25T12:11:50.363Z,97659.09
2023-04-25T12:13:55.861Z,97657.22
2023-04-25T12:16:01.442Z,97658.63
2023-04-25T12:18:06.954Z,97655.44
2023-04-25T12:20:14.274Z,97669.50
2023-04-25T12:22:31.332Z,97666.03
2023-04-25T12:24:39.417Z,97670.31
2023-04-25T12:26:55.908Z,97666.78
2023-04-25T12:29:01.526Z,97674.50
2023-04-25T12:31:08.293Z,97681.47
2023-04-25T12:33:13.315Z,97678.06
2023-04-25T12:35:20.065Z,97680.78
2023-04-25T12:37:25.098Z,97688.72
2023-04-25T12:39:32.622Z,97692.50
2023-04-25T12:41:38.788Z,97691.69
2023-04-25T12:43:43.645Z,97687.47
2023-04-25T12:45:48.660Z,97686.91
2023-04-25T12:47:53.598Z,97703.28
2023-04-25T12:49:58.489Z,97695.81
2023-04-25T12:52:03.450Z,97705.91
2023-04-25T12:54:09.905Z,97705.59
2023-04-25T12:56:18.604Z,97695.63
2023-04-25T12:58:24.952Z,97694.13
2023-04-25T13:00:30.453Z,97695.78
2023-04-25T13:02:35.473Z,97699.78
2023-04-25T13:04:40.581Z,97702.34
2023-04-25T13:06:45.841Z,97708.31
2023-04-25T13:08:51.054Z,97705.31
2023-04-25T13:10:56.189Z,97703.63
2023-04-25T13:13:03.830Z,97706.22
2023-04-25T13:15:10.701Z,97706.41
2023-04-25T13:17:15.603Z,97703.38
2023-04-25T13:19:20.538Z,97719.34
2023-04-25T13:21:25.476Z,97712.03
2023-04-25T13:23:31.830Z,97710.38
2023-04-25T13:25:36.896Z,97711.47
2023-04-25T13:27:41.898Z,97710.56
2023-04-25T13:29:49.304Z,97716.06
2023-04-25T13:31:54.362Z,97717.19
2023-04-25T13:33:59.250Z,97723.44
2023-04-25T13:36:05.485Z,97723.97
2023-04-25T13:38:10.352Z,97730.63
2023-04-25T13:40:15.503Z,97735.28
2023-04-25T13:42:20.256Z,97741.44
2023-04-25T13:44:25.343Z,97738.50
2023-04-25T13:48:40.673Z,97750.69
2023-04-25T13:50:45.561Z,97748.91
2023-04-25T13:52:50.655Z,97752.56
2023-04-25T13:54:55.460Z,97752.22
2023-04-25T13:57:00.576Z,97752.03
2023-04-25T13:59:08.154Z,97763.38
2023-04-25T14:01:13.189Z,97750.34
2023-04-25T14:03:20.863Z,97760.97
2023-04-25T14:05:25.822Z,97758.63
2023-04-25T14:07:31.384Z,97761.06
2023-04-25T14:09:36.461Z,97759.66
2023-04-25T14:11:42.211Z,97770.19
2023-04-25T14:13:47.162Z,97774.00
2023-04-25T14:15:52.237Z,97765.59
2023-04-25T14:17:57.078Z,97780.00
2023-04-25T14:20:06.986Z,97778.38
2023-04-25T14:22:11.866Z,97778.00
2023-04-25T14:24:17.446Z,97780.72
2023-04-25T14:26:22.389Z,97773.78
2023-04-25T14:28:27.263Z,97781.56
2023-04-25T14:30:32.540Z,97779.63
2023-04-25T14:32:37.220Z,97776.00
2023-04-25T14:34:42.224Z,97787.75
2023-04-25T14:36:49.862Z,97784.09
2023-04-25T14:38:54.750Z,97791.94
2023-04-25T14:40:59.728Z,97786.50
2023-04-25T14:43:04.676Z,97790.75
2023-04-25T14:45:11.163Z,97793.28
2023-04-25T14:47:16.809Z,97795.50
2023-04-25T14:49:22.158Z,97803.69
2023-04-25T14:51:27.595Z,97800.34
2023-04-25T14:53:35.786Z,97799.31
2023-04-25T14:55:42.102Z,97804.09
2023-04-25T14:57:47.116Z,97799.63
2023-04-25T14:59:52.024Z,97803.06
2023-04-25T15:01:59.473Z,97799.53
2023-04-25T15:04:04.994Z,97805.66
2023-04-25T15:06:10.696Z,97816.75
2023-04-25T15:08:15.649Z,97816.59
2023-04-25T15:10:23.679Z,97806.00
2023-04-25T15:12:29.525Z,97817.94
2023-04-25T15:14:35.089Z,97821.59
2023-04-25T15:16:40.088Z,97815.19
2023-04-25T15:18:45.630Z,97824.84
2023-04-25T15:20:51.186Z,97821.50
2023-04-25T15:22:56.480Z,97828.56
2023-04-25T15:25:01.720Z,97831.63
2023-04-25T15:27:09.632Z,97833.19
2023-04-25T15:29:14.545Z,97844.38
2023-04-25T15:31:19.544Z,97833.84
2023-04-25T15:33:24.609Z,97842.22
2023-04-25T15:35:30.001Z,97831.38
2023-04-25T15:37:34.951Z,97838.41
2023-04-25T15:39:39.851Z,97829.88
2023-04-25T15:41:46.013Z,97827.59
2023-04-25T15:43:53.806Z,97828.03
2023-04-25T15:45:59.145Z,97827.81
2023-04-25T15:48:04.127Z,97836.34
2023-04-25T15:50:11.654Z,97836.84
2023-04-25T15:52:21.989Z,97841.31
2023-04-25T15:54:27.207Z,97842.41
2023-04-25T15:56:32.246Z,97837.53
2023-04-25T15:58:37.120Z,97848.56
2023-04-25T16:00:44.965Z,97848.91
2023-04-25T16:02:50.263Z,97847.09
2023-04-25T16:04:55.665Z,97845.00
2023-04-25T16:07:00.691Z,97839.84
2023-04-25T16:09:06.819Z,97847.38
2023-04-25T16:11:14.657Z,97836.13
2023-04-25T16:13:19.522Z,97843.28
2023-04-25T16:15:24.771Z,97843.19
2023-04-25T16:17:33.563Z,97845.81
2023-04-25T16:19:38.914Z,97837.84
2023-04-25T16:21:43.611Z,97838.19
2023-04-25T16:23:48.757Z,97845.94
2023-04-25T16:25:55.064Z,97852.47
2023-04-25T16:28:00.085Z,97855.53
2023-04-25T16:30:04.987Z,97852.03
2023-04-25T16:32:10.009Z,97850.53
2023-04-25T16:34:18.130Z,97856.75
2023-04-25T16:36:23.079Z,97865.50
2023-04-25T16:38:27.999Z,97864.22
2023-04-25T16:40:32.935Z,97863.50
2023-04-25T16:42:37.953Z,97861.31
2023-04-25T16:44:42.977Z,97867.34
2023-04-25T16:46:47.877Z,97870.56
2023-04-25T16:48:53.139Z,97861.44
2023-04-25T16:51:01.079Z,97864.56
2023-04-25T16:53:06.087Z,97875.22
2023-04-25T16:55:12.249Z,97875.16
2023-04-25T16:57:17.418Z,97870.94
2023-04-25T16:59:23.062Z,97880.91
2023-04-25T17:01:28.268Z,97874.63
2023-04-25T17:03:34.858Z,97882.28
2023-04-25T17:05:40.960Z,97880.00
2023-04-25T17:07:48.473Z,97884.50
2023-04-25T17:09:53.537Z,97886.72
2023-04-25T17:11:58.639Z,97892.91
2023-04-25T17:14:03.861Z,97882.13
2023-04-25T17:16:11.120Z,97884.34
2023-04-25T17:18:16.149Z,97897.28
2023-04-25T17:20:21.998Z,97886.66
2023-04-25T17:22:27.705Z,97894.75
2023-04-25T17:24:35.185Z,97892.00
2023-04-25T17:26:41.248Z,97897.16
2023-04-25T17:28:49.825Z,97897.00
2023-04-25T17:30:55.297Z,97896.31
2023-04-25T17:32:59.962Z,97896.16
2023-04-25T17:35:05.923Z,97895.91
2023-04-25T17:37:15.396Z,97903.88
2023-04-25T17:39:20.310Z,97908.94
2023-04-25T17:41:28.248Z,97910.84
2023-04-25T17:43:34.043Z,97912.72
2023-04-25T17:45:39.312Z,97915.91
2023-04-25T17:47:46.148Z,97914.44
2023-04-25T17:49:51.763Z,97916.16
2023-04-25T17:51:57.093Z,97921.13
2023-04-25T17:54:01.891Z,97922.09
2023-04-25T17:56:19.358Z,97923.03
2023-04-25T17:58:33.813Z,97916.44
2023-04-25T18:00:38.852Z,97924.94
2023-04-25T18:02:45.521Z,97929.53
2023-04-25T18:04:50.623Z,97931.06
2023-04-25T18:06:55.840Z,97929.69
2023-04-25T18:09:00.520Z,97938.56
2023-04-25T18:11:05.405Z,97935.19
2023-04-25T18:13:11.007Z,97930.97
2023-04-25T18:15:22.226Z,97936.50
2023-04-25T18:17:27.192Z,97938.59
2023-04-25T18:19:32.212Z,97934.75
2023-04-25T18:21:37.310Z,97936.84
2023-04-25T18:23:42.252Z,97938.47
2023-04-25T18:25:47.317Z,97934.78
2023-04-25T18:27:52.248Z,97936.53
2023-04-25T18:29:57.241Z,97947.03
2023-04-25T18:32:05.322Z,97952.47
2023-04-25T18:34:11.168Z,97955.69
2023-04-25T18:36:16.052Z,97954.81
2023-04-25T18:38:34.849Z,97961.59
2023-04-25T18:40:58.164Z,97971.91
2023-04-25T18:43:11.075Z,97977.38
2023-04-25T18:45:16.208Z,97986.38
2023-04-25T18:47:23.715Z,97992.28
2023-04-25T18:49:28.607Z,97998.66
2023-04-25T18:51:34.098Z,97997.13
2023-04-25T18:53:39.259Z,98009.56
2023-04-25T18:55:43.931Z,98019.44
2023-04-25T18:57:48.864Z,98019.22
2023-04-25T18:59:54.094Z,98015.50
2023-04-25T19:01:58.871Z,98021.47
2023-04-25T19:04:07.212Z,98024.72
2023-04-25T19:06:12.295Z,98026.13
2023-04-25T19:08:18.055Z,98025.91
2023-04-25T19:10:23.029Z,98031.09
2023-04-25T19:12:28.795Z,98026.13
2023-04-25T19:14:34.332Z,98028.28
2023-04-25T19:16:43.707Z,98042.22
2023-04-25T19:18:52.240Z,98033.56
2023-04-25T19:21:00.728Z,98031.84
2023-04-25T19:23:05.695Z,98041.66
2023-04-25T19:25:11.584Z,98043.34
2023-04-25T19:27:16.600Z,98042.63
2023-04-25T19:29:21.764Z,98046.31
2023-04-25T19:31:27.685Z,98049.03
2023-04-25T19:33:32.926Z,98060.06
2023-04-25T19:35:37.774Z,98053.31
2023-04-25T19:37:46.748Z,98056.84
2023-04-25T19:39:51.898Z,98051.13
2023-04-25T19:41:57.777Z,98055.34
2023-04-25T19:44:07.117Z,98057.75
2023-04-25T19:46:12.322Z,98056.06
2023-04-25T19:48:17.277Z,98064.53
2023-04-25T19:50:22.294Z,98058.41
2023-04-25T19:52:27.221Z,98065.63
2023-04-25T19:54:34.855Z,98063.91
2023-04-25T19:56:39.805Z,98059.72
2023-04-25T19:58:45.332Z,98064.13
2023-04-25T20:00:51.494Z,98063.34
2023-04-25T20:02:57.980Z,98057.00
2023-04-25T20:05:03.653Z,98063.53
2023-04-25T20:07:08.656Z,98061.09
2023-04-25T20:09:13.736Z,98069.91
2023-04-25T20:11:21.754Z,98071.50
2023-04-25T20:13:26.659Z,98063.88
2023-04-25T20:15:32.096Z,98063.94
2023-04-25T20:17:37.185Z,98066.75
2023-04-25T20:19:42.683Z,98069.59
2023-04-25T20:21:47.605Z,98072.00
2023-04-25T20:23:52.869Z,98073.22
2023-04-25T20:25:57.474Z,98072.06
2023-04-25T20:28:04.975Z,98071.03
2023-04-25T20:30:12.296Z,98073.63
2023-04-25T20:32:17.359Z,98063.34
2023-04-25T20:34:25.063Z,98070.34
2023-04-25T20:36:29.977Z,98076.72
2023-04-25T20:38:35.077Z,98075.03
2023-04-25T20:40:39.981Z,98088.47
2023-04-25T20:42:47.886Z,98084.34
2023-04-25T20:44:56.082Z,98084.19
2023-04-25T20:47:01.014Z,98079.84
2023-04-25T20:49:05.992Z,98086.72
2023-04-25T20:51:12.228Z,98089.13
2023-04-25T20:53:17.268Z,98091.72
2023-04-25T20:55:22.344Z,98093.59
2023-04-25T20:57:27.806Z,98095.41
2023-04-25T20:59:32.982Z,98093.72
2023-04-25T21:01:40.648Z,98092.75
2023-04-25T21:03:48.592Z,98094.47
2023-04-25T21:05:53.684Z,98097.78
2023-04-25T21:07:58.628Z,98101.50
2023-04-25T21:10:04.599Z,98113.78
2023-04-25T21:12:10.247Z,98113.09
2023-04-25T21:14:15.175Z,98103.63
2023-04-25T21:16:20.168Z,98111.91
2023-04-25T21:18:28.311Z,98103.94
2023-04-25T21:20:33.484Z,98110.03
2023-04-25T21:22:44.838Z,98108.88
2023-04-25T21:24:50.992Z,98106.34
2023-04-25T21:26:55.937Z,98109.66
2023-04-25T21:29:00.770Z,98110.81
2023-04-25T21:31:06.639Z,98105.28
2023-04-25T21:33:11.832Z,98120.13
2023-04-25T21:35:19.724Z,98120.13
2023-04-25T21:37:24.632Z,98119.34
2023-04-25T21:39:29.483Z,98114.38
2023-04-25T21:41:34.497Z,98110.84
2023-04-25T21:43:39.681Z,98110.94
2023-04-25T21:46:20.937Z,98110.03
2023-04-25T21:48:11.745Z,98121.78
2023-04-25T21:50:20.044Z,98124.75
2023-04-25T21:52:25.508Z,98127.69
2023-04-25T21:54:30.379Z,98130.78
2023-04-25T21:56:35.474Z,98132.78
2023-04-25T21:58:43.033Z,98131.94
2023-04-25T22:00:48.158Z,98140.78
2023-04-25T22:02:53.530Z,98137.47
2023-04-25T22:04:58.595Z,98136.44
2023-04-25T22:07:06.358Z,98141.75
2023-04-25T22:09:11.302Z,98145.13
2023-04-25T22:11:16.129Z,98138.25
2023-04-25T22:13:21.251Z,98147.63
2023-04-25T22:15:26.549Z,98145.13
2023-04-25T22:17:31.660Z,98140.75
2023-04-25T22:19:37.342Z,98136.56
2023-04-25T22:21:42.491Z,98142.31
2023-04-25T22:23:52.130Z,98141.47
2023-04-25T22:25:57.249Z,98144.22
2023-04-25T22:28:01.927Z,98145.38
2023-04-25T22:30:09.591Z,98145.41
2023-04-25T22:32:14.651Z,98147.38
2023-04-25T22:34:19.625Z,98150.41
2023-04-25T22:36:24.860Z,98147.03
2023-04-25T22:38:29.489Z,98147.13
2023-04-25T22:40:36.972Z,98152.59
2023-04-25T22:42:43.343Z,98150.06
2023-04-25T22:44:48.233Z,98149.16
2023-04-25T22:46:53.724Z,98147.56
2023-04-25T22:48:58.573Z,98151.06
2023-04-25T22:51:06.841Z,98154.59
2023-04-25T22:53:12.869Z,98157.44
2023-04-25T22:55:17.882Z,98156.84
2023-04-25T22:57:25.493Z,98153.38
2023-04-25T22:59:30.364Z,98151.78
2023-04-25T23:01:36.414Z,98154.53
2023-04-25T23:03:43.084Z,98165.03
2023-04-25T23:05:48.084Z,98169.59
2023-04-25T23:07:53.182Z,98168.88
2023-04-25T23:09:58.047Z,98167.22
2023-04-25T23:12:02.882Z,98181.22
2023-04-25T23:14:10.764Z,98180.75
2023-04-25T23:16:15.678Z,98181.81
2023-04-25T23:18:20.588Z,98185.44
2023-04-25T23:20:25.939Z,98183.84
2023-04-25T23:22:30.519Z,98176.94
2023-04-25T23:24:39.269Z,98176.88
2023-04-25T23:26:45.816Z,98185.53
2023-04-25T23:28:51.146Z,98185.59
2023-04-25T23:31:06.846Z,98189.03
2023-04-25T23:33:11.725Z,98185.72
2023-04-25T23:35:16.762Z,98183.09
2023-04-25T23:37:21.594Z,98186.63
2023-04-25T23:39:27.744Z,98185.28
2023-04-25T23:41:32.636Z,98188.09
2023-04-25T23:43:37.860Z,98196.09
2023-04-25T23:45:44.078Z,98191.88
2023-04-25T23:47:52.837Z,98196.28
2023-04-25T23:49:57.787Z,98196.28
2023-04-25T23:52:03.857Z,98199.84
2023-04-25T23:54:08.874Z,98198.25
2023-04-25T23:56:13.861Z,98197.56
2023-04-25T23:58:18.750Z,98199.28
